Time,TemperatureF,DewpointF,PressureIn,WindDirection,WindDirectionDegrees,WindSpeedMPH,WindSpeedGustMPH,Humidity,HourlyPrecipIn,Conditions,Clouds,dailyrainin,SoftwareType,DateUTC
2013-04-07 00:04:00,53.0,-99.9,0.00,South,175,11.0,12.0,-999,0.00,,,-99.99,,2013-04-07 05:04:00,
2013-04-07 00:09:00,54.0,-99.9,0.00,South,173,11.0,12.0,-999,0.00,,,-99.99,,2013-04-07 05:09:00,
2013-04-07 00:14:00,54.0,-99.9,0.00,South,176,11.0,12.0,-999,0.00,,,-99.99,,2013-04-07 05:14:00,
2013-04-07 00:19:00,53.0,-99.9,0.00,South,176,11.0,12.0,-999,0.00,,,-99.99,,2013-04-07 05:19:00,
2013-04-07 00:24:00,54.0,-99.9,0.00,South,186,12.0,13.0,-999,0.00,,,-99.99,,2013-04-07 05:24:00,
2013-04-07 00:29:00,54.0,-99.9,0.00,South,183,12.0,13.0,-999,0.00,,,-99.99,,2013-04-07 05:29:00,
2013-04-07 00:34:00,54.0,-99.9,0.00,South,185,12.0,13.0,-999,0.00,,,-99.99,,2013-04-07 05:34:00,
2013-04-07 00:39:00,54.0,-99.9,0.00,South,190,12.0,14.0,-999,0.00,,,-99.99,,2013-04-07 05:39:00,
2013-04-07 00:49:00,54.0,-99.9,0.00,South,176,12.0,14.0,-999,0.00,,,-99.99,,2013-04-07 05:49:00,
2013-04-07 00:54:00,53.0,-99.9,0.00,South,171,11.0,13.0,-999,0.00,,,-99.99,,2013-04-07 05:54:00,
2013-04-07 00:59:00,53.0,-99.9,0.00,South,175,12.0,13.0,-999,0.00,,,-99.99,,2013-04-07 05:59:00,
2013-04-07 01:14:00,53.0,-99.9,0.00,SSE,164,11.0,12.0,-999,0.00,,,-99.99,,2013-04-07 06:14:00,
2013-04-07 01:24:00,53.0,-99.9,0.00,South,178,11.0,13.0,-999,0.00,,,-99.99,,2013-04-07 06:24:00,
2013-04-07 01:29:00,52.0,-99.9,0.00,South,171,12.0,13.0,-999,0.00,,,-99.99,,2013-04-07 06:29:00,
2013-04-07 01:39:00,53.0,-99.9,0.00,South,188,12.0,14.0,-999,0.00,,,-99.99,,2013-04-07 06:39:00,
2013-04-07 01:49:00,53.0,-99.9,0.00,SSE,165,12.0,14.0,-999,0.00,,,-99.99,,2013-04-07 06:49:00,
2013-04-07 01:54:00,52.0,-99.9,0.00,South,189,12.0,14.0,-999,0.00,,,-99.99,,2013-04-07 06:54:00,
2013-04-07 01:59:00,51.0,-99.9,0.00,SSE,168,11.0,12.0,-999,0.00,,,-99.99,,2013-04-07 06:59:00,
2013-04-07 02:04:00,50.0,-99.9,0.00,SSE,166,10.0,11.0,-999,0.00,,,-99.99,,2013-04-07 07:04:00,
2013-04-07 02:09:00,49.0,-99.9,0.00,SSE,164,10.0,11.0,-999,0.00,,,-99.99,,2013-04-07 07:09:00,
2013-04-07 02:19:00,51.0,-99.9,0.00,South,179,12.0,14.0,-999,0.00,,,-99.99,,2013-04-07 07:19:00,
2013-04-07 02:24:00,50.0,-99.9,0.00,South,189,12.0,14.0,-999,0.00,,,-99.99,,2013-04-07 07:24:00,
2013-04-07 02:29:00,49.0,-99.9,0.00,South,179,12.0,12.0,-999,0.00,,,-99.99,,2013-04-07 07:29:00,
2013-04-07 02:34:00,51.0,-99.9,0.00,South,188,12.0,14.0,-999,0.00,,,-99.99,,2013-04-07 07:34:00,
2013-04-07 02:39:00,52.0,-99.9,0.00,SSW,192,13.0,15.0,-999,0.00,,,-99.99,,2013-04-07 07:39:00,
2013-04-07 02:44:00,52.0,-99.9,0.00,South,188,13.0,16.0,-999,0.00,,,-99.99,,2013-04-07 07:44:00,
2013-04-07 02:49:00,53.0,-99.9,0.00,South,189,15.0,18.0,-999,0.00,,,-99.99,,2013-04-07 07:49:00,
2013-04-07 02:54:00,53.0,-99.9,0.00,South,190,14.0,17.0,-999,0.00,,,-99.99,,2013-04-07 07:54:00,
2013-04-07 02:59:00,53.0,-99.9,0.00,South,189,16.0,18.0,-999,0.00,,,-99.99,,2013-04-07 07:59:00,
2013-04-07 03:04:00,53.0,-99.9,0.00,South,182,14.0,18.0,-999,0.00,,,-99.99,,2013-04-07 08:04:00,
2013-04-07 03:14:00,54.0,-99.9,0.00,SSW,197,15.0,18.0,-999,0.00,,,-99.99,,2013-04-07 08:14:00,
2013-04-07 03:19:00,55.0,-99.9,0.00,SSW,192,16.0,18.0,-999,0.00,,,-99.99,,2013-04-07 08:19:00,
2013-04-07 03:24:00,55.0,-99.9,0.00,SSW,192,16.0,18.0,-999,0.00,,,-99.99,,2013-04-07 08:24:00,
2013-04-07 03:29:00,55.0,-99.9,0.00,SSW,200,17.0,20.0,-999,0.00,,,-99.99,,2013-04-07 08:29:00,
2013-04-07 03:34:00,55.0,-99.9,0.00,South,188,17.0,19.0,-999,0.00,,,-99.99,,2013-04-07 08:34:00,
2013-04-07 03:39:00,55.0,-99.9,0.00,SSW,192,16.0,18.0,-999,0.00,,,-99.99,,2013-04-07 08:39:00,
2013-04-07 03:44:00,55.0,-99.9,0.00,SSW,197,16.0,18.0,-999,0.00,,,-99.99,,2013-04-07 08:44:00,
2013-04-07 03:49:00,55.0,-99.9,0.00,SSW,199,15.0,18.0,-999,0.00,,,-99.99,,2013-04-07 08:49:00,
2013-04-07 03:54:00,54.0,-99.9,0.00,South,189,16.0,18.0,-999,0.00,,,-99.99,,2013-04-07 08:54:00,
2013-04-07 03:59:00,54.0,-99.9,0.00,South,186,14.0,16.0,-999,0.00,,,-99.99,,2013-04-07 08:59:00,
2013-04-07 04:09:00,54.0,-99.9,0.00,SSW,196,14.0,16.0,-999,0.00,,,-99.99,,2013-04-07 09:09:00,
2013-04-07 04:14:00,55.0,-99.9,0.00,SSW,192,15.0,17.0,-999,0.00,,,-99.99,,2013-04-07 09:14:00,
2013-04-07 04:19:00,55.0,-99.9,0.00,SSW,210,15.0,18.0,-999,0.00,,,-99.99,,2013-04-07 09:19:00,
2013-04-07 04:29:00,54.0,-99.9,0.00,SSW,203,12.0,14.0,-999,0.00,,,-99.99,,2013-04-07 09:29:00,
2013-04-07 04:34:00,53.0,-99.9,0.00,SSW,210,11.0,13.0,-999,0.00,,,-99.99,,2013-04-07 09:34:00,
2013-04-07 04:39:00,54.0,-99.9,0.00,SSW,206,10.0,12.0,-999,0.00,,,-99.99,,2013-04-07 09:39:00,
2013-04-07 04:44:00,61.0,-99.9,0.00,WSW,248,27.0,31.0,-999,0.00,,,-99.99,,2013-04-07 09:44:00,
2013-04-07 04:54:00,57.0,-99.9,0.00,SW,230,17.0,19.0,-999,0.00,,,-99.99,,2013-04-07 09:54:00,
2013-04-07 04:59:00,58.0,-99.9,0.00,SW,214,18.0,21.0,-999,0.00,,,-99.99,,2013-04-07 09:59:00,
2013-04-07 05:04:00,60.0,-99.9,0.00,SSW,212,20.0,23.0,-999,0.00,,,-99.99,,2013-04-07 10:04:00,
2013-04-07 05:09:00,57.0,-99.9,0.00,SW,214,14.0,16.0,-999,0.00,,,-99.99,,2013-04-07 10:09:00,
2013-04-07 05:14:00,57.0,-99.9,0.00,SW,224,13.0,17.0,-999,0.00,,,-99.99,,2013-04-07 10:14:00,
2013-04-07 05:19:00,59.0,-99.9,0.00,WSW,240,13.0,16.0,-999,0.00,,,-99.99,,2013-04-07 10:19:00,
2013-04-07 05:24:00,58.0,-99.9,0.00,SW,224,13.0,15.0,-999,0.00,,,-99.99,,2013-04-07 10:24:00,
2013-04-07 05:29:00,62.0,-99.9,0.00,SW,216,8.0,12.0,-999,0.00,,,-99.99,,2013-04-07 10:29:00,
2013-04-07 05:34:00,61.0,-99.9,0.00,South,189,6.0,7.0,-999,0.00,,,-99.99,,2013-04-07 10:34:00,
2013-04-07 05:39:00,61.0,-99.9,0.00,SSE,165,2.0,4.0,-999,0.00,,,-99.99,,2013-04-07 10:39:00,
2013-04-07 05:44:00,61.0,-99.9,0.00,North,0,0.0,0.0,-999,0.00,,,-99.99,,2013-04-07 10:44:00,
2013-04-07 05:54:00,58.0,-99.9,0.00,SW,224,13.0,16.0,-999,0.00,,,-99.99,,2013-04-07 10:54:00,
2013-04-07 06:04:00,56.0,-99.9,0.00,SSW,193,13.0,15.0,-999,0.00,,,-99.99,,2013-04-07 11:04:00,
2013-04-07 06:09:00,57.0,-99.9,0.00,South,183,8.0,10.0,-999,0.00,,,-99.99,,2013-04-07 11:09:00,
2013-04-07 06:14:00,58.0,-99.9,0.00,SW,228,5.0,5.0,-999,0.00,,,-99.99,,2013-04-07 11:14:00,
2013-04-07 06:19:00,57.0,-99.9,0.00,South,186,5.0,5.0,-999,0.00,,,-99.99,,2013-04-07 11:19:00,
2013-04-07 06:29:00,60.0,-99.9,0.00,North,0,0.0,0.0,-999,0.00,,,-99.99,,2013-04-07 11:29:00,
2013-04-07 06:34:00,60.0,-99.9,0.00,North,0,0.0,0.0,-999,0.00,,,-99.99,,2013-04-07 11:34:00,
2013-04-07 06:39:00,58.0,-99.9,0.00,East,79,6.0,7.0,-999,0.00,,,-99.99,,2013-04-07 11:39:00,
2013-04-07 06:44:00,56.0,-99.9,0.00,NE,44,4.0,5.0,-999,0.00,,,-99.99,,2013-04-07 11:44:00,
2013-04-07 06:49:00,58.0,-99.9,0.00,NE,51,6.0,7.0,-999,0.00,,,-99.99,,2013-04-07 11:49:00,
2013-04-07 06:54:00,58.0,-99.9,0.00,NNE,16,4.0,5.0,-999,0.00,,,-99.99,,2013-04-07 11:54:00,
2013-04-07 07:04:00,59.0,-99.9,0.00,East,99,6.0,7.0,-999,0.00,,,-99.99,,2013-04-07 12:04:00,
2013-04-07 07:09:00,56.0,-99.9,0.00,East,97,6.0,7.0,-999,0.00,,,-99.99,,2013-04-07 12:09:00,
2013-04-07 07:14:00,56.0,-99.9,0.00,SE,140,5.0,6.0,-999,0.00,,,-99.99,,2013-04-07 12:14:00,
2013-04-07 07:19:00,55.0,-99.9,0.00,SE,142,5.0,6.0,-999,0.00,,,-99.99,,2013-04-07 12:19:00,
2013-04-07 07:24:00,54.0,-99.9,0.00,SSE,157,7.0,7.0,-999,0.00,,,-99.99,,2013-04-07 12:24:00,
2013-04-07 07:29:00,54.0,-99.9,0.00,SE,142,7.0,7.0,-999,0.00,,,-99.99,,2013-04-07 12:29:00,
2013-04-07 07:34:00,54.0,-99.9,0.00,SSE,155,7.0,8.0,-999,0.00,,,-99.99,,2013-04-07 12:34:00,
2013-04-07 07:44:00,52.0,-99.9,0.00,South,175,12.0,17.0,-999,0.00,,,-99.99,,2013-04-07 12:44:00,
2013-04-07 07:54:00,53.0,-99.9,0.00,South,178,12.0,13.0,-999,0.00,,,-99.99,,2013-04-07 12:54:00,
2013-04-07 07:59:00,53.0,-99.9,0.00,South,178,12.0,12.0,-999,0.00,,,-99.99,,2013-04-07 12:59:00,
2013-04-07 08:04:00,53.0,-99.9,0.00,SSE,159,11.0,12.0,-999,0.00,,,-99.99,,2013-04-07 13:04:00,
2013-04-07 08:14:00,55.0,-99.9,0.00,SE,145,9.0,11.0,-999,0.00,,,-99.99,,2013-04-07 13:14:00,
2013-04-07 08:19:00,54.0,-99.9,0.00,ESE,120,9.0,9.0,-999,0.00,,,-99.99,,2013-04-07 13:19:00,
2013-04-07 08:24:00,55.0,-99.9,0.00,SE,137,7.0,8.0,-999,0.00,,,-99.99,,2013-04-07 13:24:00,
2013-04-07 08:29:00,55.0,-99.9,0.00,SE,141,7.0,7.0,-999,0.00,,,-99.99,,2013-04-07 13:29:00,
2013-04-07 08:34:00,55.0,-99.9,0.00,SE,125,7.0,9.0,-999,0.00,,,-99.99,,2013-04-07 13:34:00,
2013-04-07 08:44:00,55.0,-99.9,0.00,East,99,8.0,9.0,-999,0.00,,,-99.99,,2013-04-07 13:44:00,
2013-04-07 08:54:00,56.0,-99.9,0.00,ESE,116,8.0,9.0,-999,0.00,,,-99.99,,2013-04-07 13:54:00,
2013-04-07 08:59:00,57.0,-99.9,0.00,ESE,121,7.0,8.0,-999,0.00,,,-99.99,,2013-04-07 13:59:00,
2013-04-07 09:04:00,57.0,-99.9,0.00,SSE,147,7.0,8.0,-999,0.00,,,-99.99,,2013-04-07 14:04:00,
2013-04-07 09:09:00,58.0,-99.9,0.00,SE,135,8.0,9.0,-999,0.00,,,-99.99,,2013-04-07 14:09:00,
2013-04-07 09:14:00,60.0,-99.9,0.00,SSE,151,7.0,9.0,-999,0.00,,,-99.99,,2013-04-07 14:14:00,
2013-04-07 09:19:00,59.0,-99.9,0.00,SE,141,8.0,9.0,-999,0.00,,,-99.99,,2013-04-07 14:19:00,
2013-04-07 09:24:00,59.0,-99.9,0.00,SE,125,8.0,10.0,-999,0.00,,,-99.99,,2013-04-07 14:24:00,
2013-04-07 09:29:00,61.0,-99.9,0.00,SE,140,7.0,9.0,-999,0.00,,,-99.99,,2013-04-07 14:29:00,
2013-04-07 09:34:00,61.0,-99.9,0.00,ESE,123,8.0,9.0,-999,0.00,,,-99.99,,2013-04-07 14:34:00,
2013-04-07 09:44:00,62.0,-99.9,0.00,SE,140,10.0,12.0,-999,0.00,,,-99.99,,2013-04-07 14:44:00,
2013-04-07 09:49:00,63.0,-99.9,0.00,ESE,110,12.0,14.0,-999,0.00,,,-99.99,,2013-04-07 14:49:00,
2013-04-07 09:59:00,63.0,-99.9,0.00,SE,130,13.0,16.0,-999,0.00,,,-99.99,,2013-04-07 14:59:00,
2013-04-07 10:04:00,63.0,-99.9,0.00,SE,135,16.0,19.0,-999,0.00,,,-99.99,,2013-04-07 15:04:00,
2013-04-07 10:09:00,63.0,-99.9,0.00,SE,140,13.0,15.0,-999,0.00,,,-99.99,,2013-04-07 15:09:00,
2013-04-07 10:19:00,64.0,-99.9,0.00,SSE,147,13.0,15.0,-999,0.00,,,-99.99,,2013-04-07 15:19:00,
2013-04-07 10:24:00,66.0,-99.9,0.00,SSE,152,14.0,16.0,-999,0.00,,,-99.99,,2013-04-07 15:24:00,
2013-04-07 10:39:00,66.0,-99.9,0.00,South,175,15.0,18.0,-999,0.00,,,-99.99,,2013-04-07 15:39:00,
2013-04-07 10:44:00,66.0,-99.9,0.00,SSE,152,14.0,17.0,-999,0.00,,,-99.99,,2013-04-07 15:44:00,
2013-04-07 10:54:00,67.0,-99.9,0.00,SSE,165,17.0,20.0,-999,0.00,,,-99.99,,2013-04-07 15:54:00,
2013-04-07 11:04:00,66.0,-99.9,0.00,SSE,161,18.0,21.0,-999,0.00,,,-99.99,,2013-04-07 16:04:00,
2013-04-07 11:14:00,67.0,-99.9,0.00,SE,138,19.0,22.0,-999,0.00,,,-99.99,,2013-04-07 16:14:00,
2013-04-07 11:24:00,69.0,-99.9,0.00,SSE,147,20.0,25.0,-999,0.00,,,-99.99,,2013-04-07 16:24:00,
2013-04-07 11:29:00,67.0,-99.9,0.00,SSE,148,21.0,29.0,-999,0.00,,,-99.99,,2013-04-07 16:29:00,
2013-04-07 11:39:00,68.0,-99.9,0.00,SE,134,22.0,27.0,-999,0.00,,,-99.99,,2013-04-07 16:39:00,
2013-04-07 11:44:00,69.0,-99.9,0.00,SSE,166,22.0,26.0,-999,0.00,,,-99.99,,2013-04-07 16:44:00,
2013-04-07 11:54:00,68.0,-99.9,0.00,SSE,159,21.0,28.0,-999,0.00,,,-99.99,,2013-04-07 16:54:00,
2013-04-07 11:59:00,68.0,-99.9,0.00,South,176,22.0,26.0,-999,0.00,,,-99.99,,2013-04-07 16:59:00,
2013-04-07 12:04:00,68.0,-99.9,0.00,SSE,164,22.0,25.0,-999,0.00,,,-99.99,,2013-04-07 17:04:00,
2013-04-07 12:14:00,69.0,-99.9,0.00,SSE,152,20.0,24.0,-999,0.00,,,-99.99,,2013-04-07 17:14:00,
2013-04-07 12:24:00,68.0,-99.9,0.00,SSE,166,21.0,26.0,-999,0.00,,,-99.99,,2013-04-07 17:24:00,
2013-04-07 12:29:00,69.0,-99.9,0.00,SSE,157,22.0,25.0,-999,0.00,,,-99.99,,2013-04-07 17:29:00,
2013-04-07 12:34:00,69.0,-99.9,0.00,South,175,21.0,26.0,-999,0.00,,,-99.99,,2013-04-07 17:34:00,
2013-04-07 12:39:00,69.0,-99.9,0.00,South,179,22.0,27.0,-999,0.00,,,-99.99,,2013-04-07 17:39:00,
2013-04-07 12:44:00,68.0,-99.9,0.00,South,179,22.0,27.0,-999,0.00,,,-99.99,,2013-04-07 17:44:00,
2013-04-07 12:49:00,68.0,-99.9,0.00,South,169,22.0,25.0,-999,0.00,,,-99.99,,2013-04-07 17:49:00,
2013-04-07 12:59:00,68.0,-99.9,0.00,SSE,168,22.0,24.0,-999,0.00,,,-99.99,,2013-04-07 17:59:00,
2013-04-07 13:04:00,69.0,-99.9,0.00,SSE,162,20.0,25.0,-999,0.00,,,-99.99,,2013-04-07 18:04:00,
2013-04-07 13:09:00,68.0,-99.9,0.00,SSE,168,24.0,27.0,-999,0.00,,,-99.99,,2013-04-07 18:09:00,
2013-04-07 13:14:00,69.0,-99.9,0.00,SSE,158,21.0,26.0,-999,0.00,,,-99.99,,2013-04-07 18:14:00,
2013-04-07 13:19:00,71.0,-99.9,0.00,South,185,21.0,24.0,-999,0.00,,,-99.99,,2013-04-07 18:19:00,
2013-04-07 13:24:00,70.0,-99.9,0.00,South,180,23.0,26.0,-999,0.00,,,-99.99,,2013-04-07 18:24:00,
2013-04-07 13:29:00,71.0,-99.9,0.00,South,186,22.0,26.0,-999,0.00,,,-99.99,,2013-04-07 18:29:00,
2013-04-07 13:34:00,71.0,-99.9,0.00,SSE,162,21.0,26.0,-999,0.00,,,-99.99,,2013-04-07 18:34:00,
2013-04-07 13:39:00,71.0,-99.9,0.00,SE,141,25.0,27.0,-999,0.00,,,-99.99,,2013-04-07 18:39:00,
2013-04-07 13:49:00,72.0,-99.9,0.00,SSE,162,25.0,30.0,-999,0.00,,,-99.99,,2013-04-07 18:49:00,
2013-04-07 13:54:00,73.0,-99.9,0.00,South,176,24.0,29.0,-999,0.00,,,-99.99,,2013-04-07 18:54:00,
2013-04-07 13:59:00,72.0,-99.9,0.00,South,186,23.0,27.0,-999,0.00,,,-99.99,,2013-04-07 18:59:00,
2013-04-07 14:09:00,71.0,-99.9,0.00,SE,140,22.0,28.0,-999,0.00,,,-99.99,,2013-04-07 19:09:00,
2013-04-07 14:19:00,73.0,-99.9,0.00,SE,144,23.0,28.0,-999,0.00,,,-99.99,,2013-04-07 19:19:00,
2013-04-07 14:24:00,71.0,-99.9,0.00,SSE,158,24.0,29.0,-999,0.00,,,-99.99,,2013-04-07 19:24:00,
2013-04-07 14:34:00,72.0,-99.9,0.00,South,180,23.0,26.0,-999,0.00,,,-99.99,,2013-04-07 19:34:00,
2013-04-07 14:39:00,72.0,-99.9,0.00,SSE,158,20.0,26.0,-999,0.00,,,-99.99,,2013-04-07 19:39:00,
2013-04-07 14:49:00,72.0,-99.9,0.00,SSE,159,21.0,26.0,-999,0.00,,,-99.99,,2013-04-07 19:49:00,
2013-04-07 14:59:00,71.0,-99.9,0.00,SE,142,19.0,22.0,-999,0.00,,,-99.99,,2013-04-07 19:59:00,
2013-04-07 15:04:00,73.0,-99.9,0.00,South,176,24.0,29.0,-999,0.00,,,-99.99,,2013-04-07 20:04:00,
2013-04-07 15:09:00,72.0,-99.9,0.00,South,179,20.0,24.0,-999,0.00,,,-99.99,,2013-04-07 20:09:00,
2013-04-07 15:14:00,71.0,-99.9,0.00,South,186,21.0,25.0,-999,0.00,,,-99.99,,2013-04-07 20:14:00,
2013-04-07 15:19:00,71.0,-99.9,0.00,SSE,151,24.0,31.0,-999,0.00,,,-99.99,,2013-04-07 20:19:00,
2013-04-07 15:24:00,71.0,-99.9,0.00,South,171,23.0,32.0,-999,0.00,,,-99.99,,2013-04-07 20:24:00,
2013-04-07 15:29:00,74.0,-99.9,0.00,SSE,165,25.0,30.0,-999,0.00,,,-99.99,,2013-04-07 20:29:00,
2013-04-07 15:34:00,71.0,-99.9,0.00,South,176,25.0,29.0,-999,0.00,,,-99.99,,2013-04-07 20:34:00,
2013-04-07 15:39:00,70.0,-99.9,0.00,SSE,147,21.0,25.0,-999,0.00,,,-99.99,,2013-04-07 20:39:00,
2013-04-07 15:44:00,69.0,-99.9,0.00,SSE,149,18.0,21.0,-999,0.00,,,-99.99,,2013-04-07 20:44:00,
2013-04-07 15:49:00,68.0,-99.9,0.00,SSE,154,17.0,21.0,-999,0.00,,,-99.99,,2013-04-07 20:49:00,
2013-04-07 15:54:00,67.0,-99.9,0.00,SSE,159,14.0,17.0,-999,0.00,,,-99.99,,2013-04-07 20:54:00,
2013-04-07 15:59:00,66.0,-99.9,0.00,SSE,158,10.0,12.0,-999,0.00,,,-99.99,,2013-04-07 20:59:00,
2013-04-07 16:04:00,68.0,-99.9,0.00,SSE,166,7.0,9.0,-999,0.00,,,-99.99,,2013-04-07 21:04:00,
2013-04-07 16:14:00,69.0,-99.9,0.00,South,190,18.0,22.0,-999,0.00,,,-99.99,,2013-04-07 21:14:00,
2013-04-07 16:19:00,69.0,-99.9,0.00,South,188,20.0,23.0,-999,0.00,,,-99.99,,2013-04-07 21:19:00,
2013-04-07 16:29:00,65.0,-99.9,0.00,SSE,166,18.0,21.0,-999,0.00,,,-99.99,,2013-04-07 21:29:00,
2013-04-07 16:34:00,66.0,-99.9,0.00,South,173,15.0,16.0,-999,0.00,,,-99.99,,2013-04-07 21:34:00,
2013-04-07 16:39:00,68.0,-99.9,0.00,SSE,159,14.0,18.0,-999,0.00,,,-99.99,,2013-04-07 21:39:00,
2013-04-07 16:44:00,69.0,-99.9,0.00,SSE,158,16.0,19.0,-999,0.00,,,-99.99,,2013-04-07 21:44:00,
2013-04-07 16:49:00,71.0,-99.9,0.00,South,178,20.0,24.0,-999,0.00,,,-99.99,,2013-04-07 21:49:00,
2013-04-07 16:59:00,71.0,-99.9,0.00,SSW,196,19.0,22.0,-999,0.00,,,-99.99,,2013-04-07 21:59:00,
2013-04-07 17:04:00,67.0,-99.9,0.00,SW,234,14.0,17.0,-999,0.00,,,-99.99,,2013-04-07 22:04:00,
2013-04-07 17:09:00,66.0,-99.9,0.00,WNW,303,18.0,21.0,-999,0.00,,,-99.99,,2013-04-07 22:09:00,
2013-04-07 17:14:00,65.0,-99.9,0.00,NNW,344,12.0,16.0,-999,0.00,,,-99.99,,2013-04-07 22:14:00,
2013-04-07 17:19:00,66.0,-99.9,0.00,North,6,10.0,14.0,-999,0.00,,,-99.99,,2013-04-07 22:19:00,
2013-04-07 17:29:00,67.0,-99.9,0.00,NNE,16,7.0,9.0,-999,0.00,,,-99.99,,2013-04-07 22:29:00,
2013-04-07 17:34:00,68.0,-99.9,0.00,WNW,299,10.0,12.0,-999,0.00,,,-99.99,,2013-04-07 22:34:00,
2013-04-07 17:39:00,69.0,-99.9,0.00,NW,309,12.0,15.0,-999,0.00,,,-99.99,,2013-04-07 22:39:00,
2013-04-07 17:49:00,68.0,-99.9,0.00,NW,312,13.0,15.0,-999,0.00,,,-99.99,,2013-04-07 22:49:00,
2013-04-07 17:54:00,69.0,-99.9,0.00,NW,324,13.0,16.0,-999,0.00,,,-99.99,,2013-04-07 22:54:00,
2013-04-07 18:04:00,68.0,-99.9,0.00,NW,324,15.0,17.0,-999,0.00,,,-99.99,,2013-04-07 23:04:00,
2013-04-07 18:09:00,68.0,-99.9,0.00,NW,323,17.0,19.0,-999,0.00,,,-99.99,,2013-04-07 23:09:00,
2013-04-07 18:14:00,68.0,-99.9,0.00,NW,312,16.0,18.0,-999,0.00,,,-99.99,,2013-04-07 23:14:00,
2013-04-07 18:19:00,66.0,-99.9,0.00,NNW,334,15.0,17.0,-999,0.00,,,-99.99,,2013-04-07 23:19:00,
2013-04-07 18:24:00,66.0,-99.9,0.00,NNW,347,12.0,15.0,-999,0.00,,,-99.99,,2013-04-07 23:24:00,
2013-04-07 18:29:00,65.0,-99.9,0.00,NNW,348,15.0,19.0,-999,0.00,,,-99.99,,2013-04-07 23:29:00,
2013-04-07 18:34:00,64.0,-99.9,0.00,North,1,16.0,19.0,-999,0.00,,,-99.99,,2013-04-07 23:34:00,
2013-04-07 18:39:00,63.0,-99.9,0.00,North,7,14.0,18.0,-999,0.00,,,-99.99,,2013-04-07 23:39:00,
2013-04-07 18:49:00,61.0,-99.9,0.00,NNW,347,13.0,16.0,-999,0.00,,,-99.99,,2013-04-07 23:49:00,
2013-04-07 18:54:00,61.0,-99.9,0.00,NNW,341,12.0,14.0,-999,0.00,,,-99.99,,2013-04-07 23:54:00,
2013-04-07 18:59:00,61.0,-99.9,0.00,NNW,345,11.0,13.0,-999,0.00,,,-99.99,,2013-04-07 23:59:00,
2013-04-07 19:04:00,61.0,-99.9,0.00,North,3,9.0,12.0,-999,0.00,,,-99.99,,2013-04-08 00:04:00,
2013-04-07 19:09:00,60.0,-99.9,0.00,NNW,345,10.0,13.0,-999,0.00,,,-99.99,,2013-04-08 00:09:00,
2013-04-07 19:19:00,59.0,-99.9,0.00,North,6,8.0,10.0,-999,0.00,,,-99.99,,2013-04-08 00:19:00,
2013-04-07 19:29:00,59.0,-99.9,0.00,NNE,17,8.0,9.0,-999,0.00,,,-99.99,,2013-04-08 00:29:00,
2013-04-07 19:39:00,58.0,-99.9,0.00,NNE,18,7.0,8.0,-999,0.00,,,-99.99,,2013-04-08 00:39:00,
2013-04-07 19:49:00,57.0,-99.9,0.00,NNE,28,5.0,5.0,-999,0.00,,,-99.99,,2013-04-08 00:49:00,
2013-04-07 19:54:00,57.0,-99.9,0.00,North,0,0.0,0.0,-999,0.00,,,-99.99,,2013-04-08 00:54:00,
2013-04-07 19:59:00,57.0,-99.9,0.00,North,0,0.0,0.0,-999,0.00,,,-99.99,,2013-04-08 00:59:00,
2013-04-07 20:04:00,57.0,-99.9,0.00,North,0,0.0,0.0,-999,0.00,,,-99.99,,2013-04-08 01:04:00,
2013-04-07 20:09:00,57.0,-99.9,0.00,North,0,0.0,0.0,-999,0.00,,,-99.99,,2013-04-08 01:09:00,
2013-04-07 20:14:00,56.0,-99.9,0.00,North,0,0.0,0.0,-999,0.00,,,-99.99,,2013-04-08 01:14:00,
2013-04-07 20:19:00,55.0,-99.9,0.00,NNE,23,3.0,5.0,-999,0.00,,,-99.99,,2013-04-08 01:19:00,
2013-04-07 20:24:00,55.0,-99.9,0.00,NNE,18,3.0,4.0,-999,0.00,,,-99.99,,2013-04-08 01:24:00,
2013-04-07 20:29:00,55.0,-99.9,0.00,North,0,0.0,0.0,-999,0.00,,,-99.99,,2013-04-08 01:29:00,
2013-04-07 20:34:00,55.0,-99.9,0.00,NE,47,3.0,4.0,-999,0.00,,,-99.99,,2013-04-08 01:34:00,
2013-04-07 20:39:00,55.0,-99.9,0.00,NE,54,5.0,6.0,-999,0.00,,,-99.99,,2013-04-08 01:39:00,
2013-04-07 20:44:00,53.0,-99.9,0.00,NE,49,6.0,7.0,-999,0.00,,,-99.99,,2013-04-08 01:44:00,
2013-04-07 20:49:00,53.0,-99.9,0.00,NE,45,7.0,9.0,-999,0.00,,,-99.99,,2013-04-08 01:49:00,
2013-04-07 20:54:00,53.0,-99.9,0.00,NE,55,8.0,9.0,-999,0.00,,,-99.99,,2013-04-08 01:54:00,
2013-04-07 21:04:00,53.0,-99.9,0.00,NE,44,8.0,10.0,-999,0.00,,,-99.99,,2013-04-08 02:04:00,
2013-04-07 21:09:00,53.0,-99.9,0.00,NE,54,8.0,9.0,-999,0.00,,,-99.99,,2013-04-08 02:09:00,
2013-04-07 21:14:00,53.0,-99.9,0.00,East,89,7.0,8.0,-999,0.00,,,-99.99,,2013-04-08 02:14:00,
2013-04-07 21:24:00,52.0,-99.9,0.00,ENE,59,9.0,12.0,-999,0.00,,,-99.99,,2013-04-08 02:24:00,
2013-04-07 21:29:00,51.0,-99.9,0.00,ENE,61,8.0,9.0,-999,0.00,,,-99.99,,2013-04-08 02:29:00,
2013-04-07 21:34:00,51.0,-99.9,0.00,NE,56,9.0,10.0,-999,0.00,,,-99.99,,2013-04-08 02:34:00,
2013-04-07 21:39:00,51.0,-99.9,0.00,NE,42,9.0,10.0,-999,0.00,,,-99.99,,2013-04-08 02:39:00,
2013-04-07 21:44:00,51.0,-99.9,0.00,ENE,61,8.0,10.0,-999,0.00,,,-99.99,,2013-04-08 02:44:00,
2013-04-07 21:54:00,50.0,-99.9,0.00,ENE,68,10.0,12.0,-999,0.00,,,-99.99,,2013-04-08 02:54:00,
2013-04-07 21:59:00,50.0,-99.9,0.00,NE,48,9.0,10.0,-999,0.00,,,-99.99,,2013-04-08 02:59:00,
2013-04-07 22:04:00,50.0,-99.9,0.00,NE,56,8.0,10.0,-999,0.00,,,-99.99,,2013-04-08 03:04:00,
2013-04-07 22:24:00,49.0,-99.9,0.00,ENE,76,8.0,9.0,-999,0.00,,,-99.99,,2013-04-08 03:24:00,
2013-04-07 22:34:00,49.0,-99.9,0.00,ENE,63,8.0,9.0,-999,0.00,,,-99.99,,2013-04-08 03:34:00,
2013-04-07 22:44:00,49.0,-99.9,0.00,NE,42,8.0,9.0,-999,0.00,,,-99.99,,2013-04-08 03:44:00,
2013-04-07 22:49:00,49.0,-99.9,0.00,NE,44,8.0,9.0,-999,0.00,,,-99.99,,2013-04-08 03:49:00,
2013-04-07 22:59:00,49.0,-99.9,0.00,East,87,7.0,8.0,-999,0.00,,,-99.99,,2013-04-08 03:59:00,
2013-04-07 23:04:00,48.0,-99.9,0.00,East,97,6.0,7.0,-999,0.00,,,-99.99,,2013-04-08 04:04:00,
2013-04-07 23:09:00,49.0,-99.9,0.00,SE,127,8.0,9.0,-999,0.00,,,-99.99,,2013-04-08 04:09:00,
2013-04-07 23:14:00,48.0,-99.9,0.00,ESE,120,7.0,8.0,-999,0.00,,,-99.99,,2013-04-08 04:14:00,
2013-04-07 23:19:00,48.0,-99.9,0.00,ESE,110,6.0,8.0,-999,0.00,,,-99.99,,2013-04-08 04:19:00,
2013-04-07 23:24:00,48.0,-99.9,0.00,SE,127,6.0,7.0,-999,0.00,,,-99.99,,2013-04-08 04:24:00,
2013-04-07 23:29:00,48.0,-99.9,0.00,ESE,116,6.0,7.0,-999,0.00,,,-99.99,,2013-04-08 04:29:00,
2013-04-07 23:39:00,48.0,-99.9,0.00,East,100,5.0,6.0,-999,0.00,,,-99.99,,2013-04-08 04:39:00,
2013-04-07 23:44:00,48.0,-99.9,0.00,ESE,104,5.0,6.0,-999,0.00,,,-99.99,,2013-04-08 04:44:00,
2013-04-07 23:49:00,48.0,-99.9,0.00,ESE,118,6.0,7.0,-999,0.00,,,-99.99,,2013-04-08 04:49:00,
2013-04-07 23:54:00,48.0,-99.9,0.00,SE,125,7.0,7.0,-999,0.00,,,-99.99,,2013-04-08 04:54:00,
2013-04-07 23:59:00,47.0,-99.9,0.00,ESE,103,6.0,6.0,-999,0.00,,,-99.99,,2013-04-08 04:59:00,